createdAt,value
2023-03-01T03:53:15.227Z,27.70
2023-03-01T03:55:46.527Z,27.70
2023-03-01T03:58:16.598Z,27.80
2023-03-01T04:01:10.611Z,27.90
2023-03-01T04:03:40.869Z,28.00
2023-03-01T04:06:10.989Z,28.00
2023-03-01T04:08:41.579Z,28.10
2023-03-01T04:11:31.916Z,28.10
2023-03-01T04:16:54.363Z,28.30
2023-03-01T04:19:38.294Z,28.40
2023-03-01T04:22:10.069Z,28.50
2023-03-01T04:24:47.500Z,28.50
2023-03-01T04:27:17.898Z,28.60
2023-03-01T04:29:47.696Z,28.70
2023-03-01T04:35:08.420Z,28.90
2023-03-01T04:37:38.377Z,29.10
2023-03-01T04:40:31.933Z,29.10
2023-03-01T04:43:01.337Z,29.20
2023-03-01T04:45:31.222Z,29.30
2023-03-01T04:48:01.259Z,29.50
2023-03-01T04:50:32.021Z,29.60
2023-03-01T04:53:09.518Z,29.60
2023-03-01T05:01:40.976Z,30.00
2023-03-01T05:07:00.888Z,30.20
2023-03-01T05:18:06.610Z,30.60
2023-03-01T05:23:47.485Z,30.70
2023-03-01T05:26:31.610Z,30.80
2023-03-01T05:28:49.925Z,30.90
2023-03-01T05:31:20.240Z,30.90
2023-03-01T05:33:50.276Z,31.00
2023-03-01T05:36:20.596Z,31.00
2023-03-01T05:38:52.483Z,31.00
2023-03-01T05:41:22.846Z,31.00
2023-03-01T05:43:52.880Z,31.10
2023-03-01T05:52:03.888Z,31.20
2023-03-01T05:54:34.058Z,31.20
2023-03-01T05:57:03.963Z,31.20
2023-03-01T05:59:57.411Z,31.20
2023-03-01T06:02:27.264Z,31.20
2023-03-01T06:04:57.255Z,31.20
2023-03-01T06:07:27.354Z,31.20
2023-03-01T06:09:57.143Z,31.20
2023-03-01T06:12:27.070Z,31.30
2023-03-01T06:14:58.667Z,31.30
2023-03-01T06:17:28.765Z,31.30
2023-03-01T06:19:59.821Z,31.40
2023-03-01T06:22:30.141Z,31.50
2023-03-01T06:24:59.977Z,31.50
2023-03-01T06:27:30.124Z,31.60
2023-03-01T06:30:00.390Z,31.60
2023-03-01T06:32:30.405Z,31.60
2023-03-01T06:35:00.656Z,31.70
2023-03-01T06:37:30.636Z,31.70
2023-03-01T06:40:00.556Z,31.70
2023-03-01T06:42:30.268Z,31.70
2023-03-01T06:45:00.185Z,31.70
2023-03-01T06:47:30.213Z,31.70
2023-03-01T06:50:05.338Z,31.70
2023-03-01T06:52:35.279Z,31.70
2023-03-01T06:55:05.420Z,31.80
2023-03-01T06:57:35.451Z,31.90
2023-03-01T07:00:07.130Z,31.90
2023-03-01T07:02:37.417Z,32.00
2023-03-01T07:05:08.023Z,32.00
2023-03-01T07:07:37.953Z,32.00
2023-03-01T07:10:10.332Z,32.10
2023-03-01T07:12:40.278Z,32.10
2023-03-01T07:15:11.640Z,32.10
2023-03-01T07:17:42.100Z,32.10
2023-03-01T07:20:12.801Z,32.00
2023-03-01T07:22:44.246Z,32.10
2023-03-01T07:25:14.848Z,32.10
2023-03-01T07:27:44.801Z,32.00
2023-03-01T07:30:15.132Z,32.00
2023-03-01T07:32:45.154Z,32.00
2023-03-01T07:35:15.184Z,31.90
2023-03-01T07:40:34.304Z,31.90
2023-03-01T07:43:04.977Z,31.90
2023-03-01T07:45:35.047Z,31.90
2023-03-01T07:48:05.587Z,32.00
2023-03-01T07:50:35.957Z,32.00
2023-03-01T07:53:06.745Z,31.90
2023-03-01T07:55:37.043Z,31.90
2023-03-01T07:58:06.939Z,31.90
2023-03-01T08:00:36.623Z,31.90
2023-03-01T08:03:06.839Z,31.90
2023-03-01T08:05:36.580Z,31.80
2023-03-01T08:08:07.470Z,31.70
2023-03-01T08:10:37.829Z,31.70
2023-03-01T08:13:15.779Z,31.70
2023-03-01T08:15:45.478Z,31.70
2023-03-01T08:18:15.512Z,31.70
2023-03-01T08:20:45.886Z,31.80
2023-03-01T08:23:19.812Z,31.80
2023-03-01T08:25:49.987Z,31.80
2023-03-01T08:28:20.324Z,31.80
2023-03-01T08:30:50.840Z,31.80
2023-03-01T08:33:22.518Z,31.80
2023-03-01T08:35:57.533Z,31.80
2023-03-01T08:38:27.667Z,31.80
2023-03-01T08:40:58.878Z,31.80
2023-03-01T08:43:28.900Z,31.80
2023-03-01T08:45:58.756Z,31.80
2023-03-01T08:48:30.210Z,31.80
2023-03-01T08:54:21.080Z,31.70
2023-03-01T08:56:51.667Z,31.70
2023-03-01T08:59:21.767Z,31.70
2023-03-01T09:01:51.850Z,31.70
2023-03-01T09:04:21.939Z,31.70
2023-03-01T09:06:52.118Z,31.60
2023-03-01T09:09:22.158Z,31.60
2023-03-01T09:11:53.005Z,31.70
2023-03-01T09:14:22.818Z,31.70
2023-03-01T09:16:53.147Z,31.70
2023-03-01T09:19:23.341Z,31.80
2023-03-01T09:21:58.185Z,31.70
2023-03-01T09:24:28.406Z,31.70
2023-03-01T09:26:58.626Z,31.80
2023-03-01T09:29:30.445Z,31.80
2023-03-01T09:32:00.661Z,31.70
2023-03-01T09:34:30.781Z,31.70
2023-03-01T09:37:00.971Z,31.60
2023-03-01T09:39:31.021Z,31.60
2023-03-01T09:42:06.576Z,31.50
2023-03-01T09:44:40.664Z,31.50
2023-03-01T09:47:12.106Z,31.40
2023-03-01T09:49:43.222Z,31.30
2023-03-01T09:52:17.663Z,31.30
2023-03-01T09:54:47.902Z,31.30
2023-03-01T09:57:30.825Z,31.30
2023-03-01T10:00:06.425Z,31.30
2023-03-01T10:02:54.831Z,31.20
2023-03-01T10:05:38.801Z,31.20
2023-03-01T10:08:15.988Z,31.10
2023-03-01T10:10:49.077Z,31.10
2023-03-01T10:13:35.442Z,31.00
2023-03-01T10:16:41.006Z,31.00
2023-03-01T10:19:12.193Z,31.00
2023-03-01T10:21:55.433Z,30.90
2023-03-01T10:24:26.902Z,30.90
2023-03-01T10:30:15.252Z,30.80
2023-03-01T10:32:46.976Z,30.70
2023-03-01T10:35:27.683Z,30.70
2023-03-01T10:38:21.605Z,30.60
2023-03-01T10:43:52.166Z,30.60
2023-03-01T10:46:32.480Z,30.60
2023-03-01T11:00:55.917Z,30.40
2023-03-01T11:03:36.249Z,30.40
2023-03-01T11:06:13.147Z,30.30
2023-03-01T11:08:44.509Z,30.30
2023-03-01T11:11:21.518Z,30.20
2023-03-01T11:14:25.829Z,30.10
2023-03-01T11:16:47.634Z,30.10
2023-03-01T11:19:18.964Z,30.10
2023-03-01T11:22:15.334Z,30.10
2023-03-01T11:28:08.266Z,30.00
2023-03-01T11:30:39.420Z,29.90
2023-03-01T11:33:20.507Z,29.90
2023-03-01T11:35:54.506Z,29.90
2023-03-01T11:38:28.142Z,29.80
2023-03-01T11:41:16.741Z,29.80
2023-03-01T11:43:49.745Z,29.80
2023-03-01T11:46:33.630Z,29.70
2023-03-01T11:49:11.494Z,29.80
2023-03-01T11:52:00.951Z,29.70
2023-03-01T11:54:49.013Z,29.70
2023-03-01T11:57:43.906Z,29.70
2023-03-01T12:00:44.277Z,29.60
2023-03-01T12:06:36.522Z,29.60
2023-03-01T12:09:11.976Z,29.50
2023-03-01T12:11:54.656Z,29.50
2023-03-01T12:14:38.574Z,29.50
2023-03-01T12:17:25.887Z,29.40
2023-03-01T12:19:57.070Z,29.40
2023-03-01T12:22:36.164Z,29.40
2023-03-01T12:25:34.197Z,29.30
2023-03-01T12:28:08.671Z,29.30
2023-03-01T12:33:39.924Z,29.30
2023-03-01T12:36:22.066Z,29.30
2023-03-01T12:39:14.109Z,29.30
2023-03-01T12:42:11.069Z,29.30
2023-03-01T12:44:45.042Z,29.30
2023-03-01T12:47:30.001Z,29.30
2023-03-01T12:50:03.794Z,29.30
2023-03-01T12:52:40.777Z,29.30
2023-03-01T12:55:12.853Z,29.20
2023-03-01T12:57:44.519Z,29.20
2023-03-01T13:00:33.907Z,29.20
2023-03-01T13:03:06.505Z,29.20
2023-03-01T13:05:49.709Z,29.20
2023-03-01T13:08:22.869Z,29.20
2023-03-01T13:10:56.869Z,29.10
2023-03-01T13:13:27.624Z,29.10
2023-03-01T13:15:58.134Z,29.10
2023-03-01T13:18:29.355Z,29.10
2023-03-01T13:21:01.869Z,29.00
2023-03-01T13:23:36.382Z,29.00
2023-03-01T13:26:17.915Z,29.00
2023-03-01T13:29:04.842Z,28.90
2023-03-01T13:31:36.224Z,28.90
2023-03-01T13:34:08.146Z,28.90
2023-03-01T13:36:39.288Z,28.90
2023-03-01T13:39:10.519Z,28.80
2023-03-01T13:41:49.759Z,28.80
2023-03-01T13:47:48.552Z,28.70
2023-03-01T13:50:36.652Z,28.60
2023-03-01T14:04:25.807Z,28.40
2023-03-01T14:06:56.991Z,28.30
2023-03-01T14:12:07.533Z,28.20
2023-03-01T14:17:52.153Z,28.10
2023-03-01T14:20:43.124Z,28.10
2023-03-01T14:23:18.191Z,28.10
2023-03-01T14:25:55.612Z,28.00
2023-03-01T14:28:49.434Z,28.00
2023-03-01T14:36:56.135Z,27.90
2023-03-01T14:39:38.460Z,27.90
2023-03-01T14:42:15.558Z,27.90
2023-03-01T14:47:44.485Z,27.80
2023-03-01T14:50:24.807Z,27.80
2023-03-01T14:52:57.974Z,27.80
2023-03-01T14:55:44.799Z,27.80
2023-03-01T14:58:11.943Z,27.70
2023-03-01T15:00:42.546Z,27.70
2023-03-01T15:06:12.534Z,27.60
2023-03-01T15:08:44.724Z,27.60
2023-03-01T15:11:23.758Z,27.50
2023-03-01T15:13:56.238Z,27.50
2023-03-01T15:16:33.676Z,27.50
2023-03-01T15:21:17.804Z,27.50
2023-03-01T15:24:40.603Z,27.40
2023-03-01T15:33:45.212Z,27.40
2023-03-01T15:36:28.318Z,27.30
2023-03-01T15:39:33.548Z,27.30
2023-03-01T15:42:07.287Z,27.30
2023-03-01T15:44:44.083Z,27.30
2023-03-01T15:47:13.012Z,27.20
2023-03-01T15:50:06.888Z,27.20
2023-03-01T15:52:38.933Z,27.20
2023-03-01T15:55:10.225Z,27.20
2023-03-01T15:57:40.217Z,27.20
2023-03-01T16:00:17.199Z,27.10
2023-03-01T16:02:48.809Z,27.10
2023-03-01T16:05:53.835Z,27.10
2023-03-01T16:08:33.889Z,27.10
2023-03-01T16:11:24.902Z,27.00
2023-03-01T16:13:56.784Z,27.00
2023-03-01T16:16:50.782Z,27.00
2023-03-01T16:22:09.700Z,27.00
2023-03-01T16:24:39.633Z,27.00
2023-03-01T16:27:09.391Z,27.00
2023-03-01T16:29:40.451Z,26.90
2023-03-01T16:32:12.353Z,26.90
2023-03-01T16:34:51.919Z,26.80
2023-03-01T16:37:58.696Z,26.80
2023-03-01T16:40:29.861Z,26.80
2023-03-01T16:43:01.326Z,26.80
2023-03-01T16:45:41.506Z,26.80
2023-03-01T16:48:11.498Z,26.80
2023-03-01T16:50:41.522Z,26.70
2023-03-01T16:53:11.675Z,26.60
2023-03-01T16:55:42.800Z,26.60
2023-03-01T16:58:14.281Z,26.60
2023-03-01T17:00:44.165Z,26.50
2023-03-01T17:03:39.393Z,26.50
2023-03-01T17:06:10.366Z,26.40
2023-03-01T17:08:40.856Z,26.40
2023-03-01T17:11:14.916Z,26.30
2023-03-01T17:13:50.978Z,26.30
2023-03-01T17:16:21.849Z,26.20
2023-03-01T17:18:54.606Z,26.20
2023-03-01T17:21:24.565Z,26.20
2023-03-01T17:23:55.967Z,26.20
2023-03-01T17:26:45.185Z,26.10
2023-03-01T17:29:19.361Z,26.10
2023-03-01T17:31:49.380Z,26.10
2023-03-01T17:34:22.110Z,26.00
2023-03-01T17:36:53.181Z,26.00
2023-03-01T17:39:31.574Z,26.00
2023-03-01T17:42:01.694Z,26.00
2023-03-01T17:44:31.583Z,25.90
2023-03-01T17:47:01.544Z,25.90
2023-03-01T17:49:31.438Z,25.90
2023-03-01T17:52:03.102Z,25.90
2023-03-01T17:54:34.350Z,25.80
2023-03-01T17:57:07.079Z,25.80
2023-03-01T17:59:38.232Z,25.80
2023-03-01T18:02:08.204Z,25.70
2023-03-01T18:04:38.276Z,25.70
2023-03-01T18:07:15.338Z,25.60
2023-03-01T18:10:09.237Z,25.60
2023-03-01T18:13:01.514Z,25.50
2023-03-01T18:15:31.352Z,25.50
2023-03-01T18:18:01.211Z,25.50
2023-03-01T18:20:38.940Z,25.50
2023-03-01T18:23:09.626Z,25.40
2023-03-01T18:25:40.688Z,25.40
2023-03-01T18:28:10.562Z,25.40
2023-03-01T18:30:40.419Z,25.30
2023-03-01T18:33:10.216Z,25.30
2023-03-01T18:38:49.736Z,25.20
2023-03-01T18:41:19.755Z,25.10
2023-03-01T18:43:49.458Z,25.10
2023-03-01T18:46:23.690Z,25.10
2023-03-01T18:48:54.372Z,25.00
2023-03-01T18:51:25.440Z,25.00
2023-03-01T18:53:55.345Z,25.00
2023-03-01T18:56:25.088Z,24.90
2023-03-01T18:58:57.540Z,24.90
2023-03-01T19:01:55.802Z,24.90
2023-03-01T19:04:25.604Z,24.80
2023-03-01T19:06:56.903Z,24.80
2023-03-01T19:09:26.772Z,24.80
2023-03-01T19:11:57.875Z,24.80
2023-03-01T19:14:30.811Z,24.70
2023-03-01T19:17:18.982Z,24.70
2023-03-01T19:19:48.759Z,24.70
2023-03-01T19:22:53.342Z,24.60
2023-03-01T19:25:23.338Z,24.60
2023-03-01T19:27:58.855Z,24.60
2023-03-01T19:30:28.777Z,24.50
2023-03-01T19:33:05.904Z,24.50
2023-03-01T19:35:39.003Z,24.40
2023-03-01T19:38:15.006Z,24.40
2023-03-01T19:41:11.091Z,24.40
2023-03-01T19:44:10.193Z,24.30
2023-03-01T19:46:23.970Z,24.30
2023-03-01T19:49:06.551Z,24.30
2023-03-01T19:54:35.218Z,24.20
2023-03-01T19:57:38.423Z,24.10
2023-03-01T20:00:02.658Z,24.10
2023-03-01T20:02:32.448Z,24.00
2023-03-01T20:05:08.259Z,24.00
2023-03-01T20:07:40.958Z,23.90
2023-03-01T20:10:11.436Z,23.90
2023-03-01T20:12:41.176Z,23.90
2023-03-01T20:15:11.604Z,23.80
2023-03-01T20:17:41.509Z,23.80
2023-03-01T20:20:11.936Z,23.70
2023-03-01T20:22:41.831Z,23.70
2023-03-01T20:25:11.913Z,23.70
2023-03-01T20:27:41.681Z,23.70
2023-03-01T20:30:12.087Z,23.60
2023-03-01T20:32:42.125Z,23.60
2023-03-01T20:35:12.456Z,23.50
2023-03-01T20:37:42.362Z,23.50
2023-03-01T20:40:13.334Z,23.50
2023-03-01T20:42:43.257Z,23.40
2023-03-01T20:45:13.470Z,23.40
2023-03-01T20:47:43.274Z,23.40
2023-03-01T20:50:13.889Z,23.30
2023-03-01T20:52:47.721Z,23.30
2023-03-01T20:55:15.356Z,23.30
2023-03-01T20:57:45.070Z,23.30
2023-03-01T21:00:15.393Z,23.20
2023-03-01T21:02:45.240Z,23.20
2023-03-01T21:05:14.999Z,23.10
2023-03-01T21:07:44.729Z,23.10
2023-03-01T21:10:16.777Z,23.10
2023-03-01T21:12:46.581Z,23.10
2023-03-01T21:15:28.393Z,23.00
2023-03-01T21:17:50.924Z,23.00
2023-03-01T21:20:21.359Z,23.10
2023-03-01T21:22:51.287Z,23.00
2023-03-01T21:25:21.026Z,23.00
2023-03-01T21:27:50.871Z,23.00
2023-03-01T21:30:20.835Z,23.00
2023-03-01T21:32:50.723Z,23.00
2023-03-01T21:35:20.520Z,23.00
2023-03-01T21:37:50.392Z,22.90
2023-03-01T21:40:20.299Z,22.90
2023-03-01T21:42:50.625Z,22.90
2023-03-01T21:45:20.526Z,22.90
2023-03-01T21:47:50.236Z,22.80
2023-03-01T21:50:20.410Z,22.80
2023-03-01T21:52:50.098Z,22.80
2023-03-01T21:55:20.055Z,22.80
2023-03-01T21:57:49.791Z,22.70
2023-03-01T22:00:21.346Z,22.70
2023-03-01T22:02:51.208Z,22.70
2023-03-01T22:05:21.176Z,22.60
2023-03-01T22:07:51.036Z,22.60
2023-03-01T22:10:22.135Z,22.60
2023-03-01T22:12:51.972Z,22.50
2023-03-01T22:15:21.874Z,22.60
2023-03-01T22:17:54.512Z,22.50
2023-03-01T22:20:24.282Z,22.50
2023-03-01T22:22:54.090Z,22.50
2023-03-01T22:25:24.068Z,22.50
2023-03-01T22:27:53.966Z,22.50
2023-03-01T22:30:23.786Z,22.40
2023-03-01T22:32:53.773Z,22.40
2023-03-01T22:35:23.544Z,22.40
2023-03-01T22:37:54.440Z,22.40
2023-03-01T22:40:24.188Z,22.40
2023-03-01T22:42:55.557Z,22.40
2023-03-01T22:45:25.402Z,22.30
2023-03-01T22:48:07.809Z,22.30
2023-03-01T22:50:37.607Z,22.30
2023-03-01T22:53:07.593Z,22.30
2023-03-01T22:55:37.404Z,22.30
2023-03-01T22:58:07.217Z,22.30
2023-03-01T23:00:37.079Z,22.30
2023-03-01T23:03:07.064Z,22.30
2023-03-01T23:05:37.359Z,22.30
2023-03-01T23:08:07.393Z,22.30
2023-03-01T23:10:37.126Z,22.30
2023-03-01T23:13:06.891Z,22.30
2023-03-01T23:15:36.690Z,22.30
2023-03-01T23:18:06.535Z,22.30
2023-03-01T23:20:37.705Z,22.30
2023-03-01T23:23:07.533Z,22.30
2023-03-01T23:25:37.472Z,22.30
2023-03-01T23:28:07.272Z,22.20
2023-03-01T23:30:37.056Z,22.20
2023-03-01T23:33:06.987Z,22.20
2023-03-01T23:35:37.941Z,22.20
2023-03-01T23:38:07.760Z,22.20
2023-03-01T23:40:38.759Z,22.10
2023-03-01T23:43:08.458Z,22.20
2023-03-01T23:45:44.650Z,22.10
2023-03-01T23:48:17.241Z,22.20
2023-03-01T23:50:46.938Z,22.20
2023-03-01T23:53:18.226Z,22.20
2023-03-01T23:55:55.510Z,22.20
2023-03-01T23:58:38.974Z,22.20
